Time;durP1;ratioP1;P1;durP2;ratioP2;P2;SDS_P1;SDS_P2;PMS_P1;PMS_P2;Temp;Humidity;BMP_temperature;BMP_pressure;BME280_temperature;BME280_humidity;BME280_pressure;Samples;Min_cycle;Max_cycle;Signal;HPM_P1;HPM_P2
2022/01/19 00:00:49;;;;;;;;;;;2.30;99.90;;;;;;5001561;28;19940;-79
2022/01/19 00:03:17;;;;;;;;;;;2.30;99.90;;;;;;5002691;28;19933;-79
2022/01/19 00:05:44;;;;;;;;;;;2.30;99.90;;;;;;4985955;28;19929;-78
2022/01/19 00:08:16;;;;;;;;;;;2.20;99.90;;;;;;5007148;28;19976;-79
2022/01/19 00:10:44;;;;;;;;;;;2.20;99.90;;;;;;5014491;28;20328;-79
2022/01/19 00:13:11;;;;;;;;;;;2.20;99.90;;;;;;5007486;28;20392;-79
2022/01/19 00:15:38;;;;;;;;;;;2.20;99.90;;;;;;5004218;28;19926;-79
2022/01/19 00:18:05;;;;;;;;;;;2.20;99.90;;;;;;4985259;28;20321;-79
2022/01/19 00:20:32;;;;;;;;;;;2.20;99.90;;;;;;4985533;28;19933;-78
2022/01/19 00:23:00;;;;;;;;;;;2.20;99.90;;;;;;5000493;28;19933;-79
2022/01/19 00:25:28;;;;;;;;;;;2.20;99.90;;;;;;4980375;28;19929;-79
2022/01/19 00:27:55;;;;;;;;;;;2.10;99.90;;;;;;5000416;28;19964;-78
2022/01/19 00:30:22;;;;;;;;;;;2.10;99.90;;;;;;4983452;28;20002;-78
2022/01/19 00:32:49;;;;;;;;;;;2.20;99.90;;;;;;4982273;28;20329;-79
2022/01/19 00:35:16;;;;;;;;;;;2.20;99.90;;;;;;4982534;28;19940;-78
2022/01/19 00:37:43;;;;;;;;;;;2.10;99.90;;;;;;4999490;28;19931;-78
2022/01/19 00:40:13;;;;;;;;;;;2.10;99.90;;;;;;4982460;28;19925;-79
2022/01/19 00:42:41;;;;;;;;;;;2.10;99.90;;;;;;4982257;28;20532;-79
2022/01/19 00:45:09;;;;;;;;;;;2.10;99.90;;;;;;4983785;28;19926;-79
2022/01/19 00:47:36;;;;;;;;;;;2.00;99.90;;;;;;4983263;28;20458;-79
2022/01/19 00:50:04;;;;;;;;;;;2.00;99.90;;;;;;4998879;28;19933;-78
2022/01/19 00:52:32;;;;;;;;;;;2.00;99.90;;;;;;4981507;28;19933;-79
2022/01/19 00:54:59;;;;;;;;;;;2.00;99.90;;;;;;4983797;28;20307;-78
2022/01/19 00:57:25;;;;;;;;;;;2.00;99.90;;;;;;4999169;28;20418;-79
2022/01/19 00:59:54;;;;;;;;;;;2.00;99.90;;;;;;5000328;28;19933;-79
2022/01/19 01:02:21;;;;;;;;;;;2.00;99.90;;;;;;4997709;28;19926;-78
2022/01/19 01:04:47;;;;;;;;;;;2.00;99.90;;;;;;5000092;28;20315;-79
2022/01/19 01:07:15;;;;;;;;;;;2.00;99.90;;;;;;4999830;28;19933;-79
2022/01/19 01:09:44;;;;;;;;;;;1.90;99.90;;;;;;4998831;28;19934;-79
2022/01/19 01:12:13;;;;;;;;;;;1.90;99.90;;;;;;4982031;28;19965;-78
2022/01/19 01:20:12;;;;;;;;;;;1.90;99.90;;;;;;4997833;28;19933;-79
2022/01/19 01:22:39;;;;;;;;;;;1.90;99.90;;;;;;4982322;28;19932;-78
2022/01/19 01:25:07;;;;;;;;;;;1.90;99.90;;;;;;4981097;28;19933;-79
2022/01/19 01:27:34;;;;;;;;;;;1.90;99.90;;;;;;4983155;28;19937;-79
2022/01/19 01:30:01;;;;;;;;;;;1.90;99.90;;;;;;4984531;28;19934;-78
2022/01/19 01:32:29;;;;;;;;;;;1.80;99.90;;;;;;4997058;28;19933;-79
2022/01/19 01:34:56;;;;;;;;;;;1.80;99.90;;;;;;4997489;28;19995;-78
2022/01/19 01:37:23;;;;;;;;;;;1.80;99.90;;;;;;4985679;28;19933;-79
2022/01/19 01:39:50;;;;;;;;;;;1.80;99.90;;;;;;4985269;28;20403;-78
2022/01/19 01:42:19;;;;;;;;;;;1.80;99.90;;;;;;4999066;28;19948;-79
2022/01/19 01:44:49;;;;;;;;;;;1.80;99.90;;;;;;4985227;28;20021;-78
2022/01/19 01:47:18;;;;;;;;;;;1.80;99.90;;;;;;4988459;28;19975;-78
2022/01/19 01:53:26;;;;;;;;;;;1.80;99.90;;;;;;4990653;28;19932;-79
2022/01/19 01:55:22;;;;;;;;;;;1.80;99.90;;;;;;4992595;28;19929;-78
2022/01/19 01:57:49;;;;;;;;;;;1.80;99.90;;;;;;4988563;28;19929;-78
2022/01/19 02:00:17;;;;;;;;;;;1.80;99.90;;;;;;4986010;28;20736;-78
2022/01/19 02:02:46;;;;;;;;;;;1.80;99.90;;;;;;4999622;28;20601;-79
2022/01/19 02:05:15;;;;;;;;;;;1.80;99.90;;;;;;4986258;28;19925;-78
2022/01/19 02:07:48;;;;;;;;;;;1.80;99.90;;;;;;5000700;28;19972;-78
2022/01/19 02:10:32;;;;;;;;;;;1.80;99.90;;;;;;4999455;28;19969;-79
2022/01/19 02:16:13;;;;;;;;;;;1.70;99.90;;;;;;4926084;29;20412;-79
2022/01/19 02:21:45;;;;;;;;;;;1.70;99.90;;;;;;4958731;28;20392;-79
2022/01/19 02:24:14;;;;;;;;;;;1.70;99.90;;;;;;4975230;28;19933;-78
2022/01/19 02:26:56;;;;;;;;;;;1.70;99.90;;;;;;4999211;28;19933;-79
2022/01/19 02:30:13;;;;;;;;;;;1.70;99.90;;;;;;4983294;28;19944;-78
2022/01/19 02:40:51;;;;;;;;;;;1.70;99.90;;;;;;5001056;28;19934;-79
2022/01/19 02:43:23;;;;;;;;;;;1.70;99.90;;;;;;4987359;28;19938;-78
2022/01/19 02:51:19;;;;;;;;;;;1.70;99.90;;;;;;4982006;28;20543;-79
2022/01/19 02:53:47;;;;;;;;;;;1.70;99.90;;;;;;5000073;28;19936;-79
2022/01/19 02:56:21;;;;;;;;;;;1.70;99.90;;;;;;5000667;28;20060;-79
2022/01/19 02:58:51;;;;;;;;;;;1.70;99.90;;;;;;4999847;28;19940;-79
2022/01/19 03:09:33;;;;;;;;;;;1.70;99.90;;;;;;4982294;28;19929;-77
2022/01/19 03:12:00;;;;;;;;;;;1.70;99.90;;;;;;4985592;28;19933;-78
2022/01/19 03:14:27;;;;;;;;;;;1.60;99.90;;;;;;5005891;28;19933;-78
2022/01/19 03:16:54;;;;;;;;;;;1.70;99.90;;;;;;5003328;28;19937;-78
2022/01/19 03:19:22;;;;;;;;;;;1.60;99.90;;;;;;4987972;28;19930;-78
2022/01/19 03:21:49;;;;;;;;;;;1.70;99.90;;;;;;5004387;28;19988;-78
2022/01/19 03:24:15;;;;;;;;;;;1.60;99.90;;;;;;4986647;28;19944;-78
2022/01/19 03:26:44;;;;;;;;;;;1.60;99.90;;;;;;4985819;28;19944;-78
2022/01/19 03:29:16;;;;;;;;;;;1.70;99.90;;;;;;4988566;28;19933;-78
2022/01/19 03:31:43;;;;;;;;;;;1.60;99.90;;;;;;5003752;28;20418;-78
2022/01/19 03:34:12;;;;;;;;;;;1.60;99.90;;;;;;5004400;28;20012;-78
2022/01/19 03:36:39;;;;;;;;;;;1.60;99.90;;;;;;5002282;28;20322;-78
2022/01/19 03:39:07;;;;;;;;;;;1.60;99.90;;;;;;4987735;28;19934;-78
2022/01/19 03:41:34;;;;;;;;;;;1.60;99.90;;;;;;5001870;28;19930;-78
2022/01/19 03:44:02;;;;;;;;;;;1.60;99.90;;;;;;4984000;28;19930;-78
2022/01/19 03:46:33;;;;;;;;;;;1.60;99.90;;;;;;4984222;28;20033;-79
2022/01/19 03:49:10;;;;;;;;;;;1.60;99.90;;;;;;4988203;28;19925;-79
2022/01/19 03:51:37;;;;;;;;;;;1.70;99.90;;;;;;4986999;28;20027;-78
2022/01/19 03:54:04;;;;;;;;;;;1.70;99.90;;;;;;4984965;28;19945;-78
2022/01/19 03:56:31;;;;;;;;;;;1.60;99.90;;;;;;5001181;28;19941;-79
2022/01/19 03:58:59;;;;;;;;;;;1.70;99.90;;;;;;4983377;28;19939;-78
2022/01/19 04:01:27;;;;;;;;;;;1.60;99.90;;;;;;4979271;28;20358;-79
2022/01/19 04:06:54;;;;;;;;;;;1.60;99.90;;;;;;5001303;28;20051;-78
2022/01/19 04:09:22;;;;;;;;;;;1.70;99.90;;;;;;4987322;28;20036;-78
2022/01/19 04:11:49;;;;;;;;;;;1.60;99.90;;;;;;4983454;28;20016;-78
2022/01/19 04:14:22;;;;;;;;;;;1.70;99.90;;;;;;4988982;28;20355;-78
2022/01/19 04:16:52;;;;;;;;;;;1.60;99.90;;;;;;5002357;28;19932;-79
2022/01/19 04:19:26;;;;;;;;;;;1.60;99.90;;;;;;5004937;28;19973;-78
2022/01/19 04:22:00;;;;;;;;;;;1.60;99.90;;;;;;4981776;28;19987;-78
2022/01/19 04:24:28;;;;;;;;;;;1.60;99.90;;;;;;5006156;28;20428;-78
2022/01/19 04:29:46;;;;;;;;;;;1.60;99.90;;;;;;4985291;28;19937;-78
2022/01/19 04:32:18;;;;;;;;;;;1.60;99.90;;;;;;5000455;28;20444;-78
2022/01/19 04:34:49;;;;;;;;;;;1.60;99.90;;;;;;5002147;28;19929;-78
2022/01/19 04:37:39;;;;;;;;;;;1.60;99.90;;;;;;5000059;28;19929;-79
2022/01/19 04:46:05;;;;;;;;;;;1.60;99.90;;;;;;4990052;28;19922;-79
2022/01/19 04:54:33;;;;;;;;;;;1.60;99.90;;;;;;4977844;28;20311;-79
2022/01/19 05:03:16;;;;;;;;;;;1.60;99.90;;;;;;4940684;28;19922;-78
2022/01/19 05:06:05;;;;;;;;;;;1.60;99.90;;;;;;5005761;28;19931;-78
2022/01/19 05:14:01;;;;;;;;;;;1.60;99.90;;;;;;5009885;28;19979;-78
2022/01/19 05:16:30;;;;;;;;;;;1.60;99.90;;;;;;4994648;28;19932;-78
2022/01/19 05:18:57;;;;;;;;;;;1.60;99.90;;;;;;5003651;28;19997;-79
2022/01/19 05:21:26;;;;;;;;;;;1.60;99.90;;;;;;4998246;28;19931;-79
2022/01/19 05:24:21;;;;;;;;;;;1.60;99.90;;;;;;4985155;28;19926;-78
2022/01/19 05:27:08;;;;;;;;;;;1.60;99.90;;;;;;4986327;28;19936;-79
2022/01/19 05:29:36;;;;;;;;;;;1.60;99.90;;;;;;4988869;28;19936;-78
2022/01/19 05:32:05;;;;;;;;;;;1.60;99.90;;;;;;4986237;28;19929;-78
2022/01/19 05:34:32;;;;;;;;;;;1.60;99.90;;;;;;5005143;28;19976;-78
2022/01/19 05:37:09;;;;;;;;;;;1.60;99.90;;;;;;4995480;28;19999;-79
2022/01/19 05:39:54;;;;;;;;;;;1.60;99.90;;;;;;5005563;28;19983;-78
2022/01/19 05:42:46;;;;;;;;;;;1.60;99.90;;;;;;5006539;28;20395;-78
2022/01/19 05:45:13;;;;;;;;;;;1.60;99.90;;;;;;5001254;28;20392;-79
2022/01/19 05:47:40;;;;;;;;;;;1.60;99.90;;;;;;5005217;28;19933;-78
2022/01/19 05:50:07;;;;;;;;;;;1.60;99.90;;;;;;4991431;28;20308;-79
2022/01/19 05:52:36;;;;;;;;;;;1.60;99.90;;;;;;4993739;28;20016;-78
2022/01/19 05:55:03;;;;;;;;;;;1.60;99.90;;;;;;5010389;28;20437;-78
2022/01/19 05:57:31;;;;;;;;;;;1.60;99.90;;;;;;4986145;28;19933;-78
2022/01/19 05:59:58;;;;;;;;;;;1.60;99.90;;;;;;4987942;28;19956;-78
2022/01/19 06:02:25;;;;;;;;;;;1.60;99.90;;;;;;4990960;28;20379;-78
2022/01/19 06:04:52;;;;;;;;;;;1.60;99.90;;;;;;5009250;28;20391;-78
2022/01/19 06:07:43;;;;;;;;;;;1.60;99.90;;;;;;5001903;28;19933;-78
2022/01/19 06:10:43;;;;;;;;;;;1.60;99.90;;;;;;4987272;28;19926;-78
2022/01/19 06:13:11;;;;;;;;;;;1.60;99.90;;;;;;4993137;28;20399;-79
2022/01/19 06:15:38;;;;;;;;;;;1.50;99.90;;;;;;4986654;28;20063;-79
2022/01/19 06:18:05;;;;;;;;;;;1.60;99.90;;;;;;4989079;28;19925;-79
2022/01/19 06:20:32;;;;;;;;;;;1.50;99.90;;;;;;4986691;28;19945;-79
2022/01/19 06:23:01;;;;;;;;;;;1.50;99.90;;;;;;4990506;28;19937;-80
2022/01/19 06:25:28;;;;;;;;;;;1.60;99.90;;;;;;4996286;28;19933;-80
2022/01/19 06:27:56;;;;;;;;;;;1.60;99.90;;;;;;4994038;28;19926;-80
2022/01/19 06:30:23;;;;;;;;;;;1.50;99.90;;;;;;4998675;28;19932;-79
2022/01/19 06:32:50;;;;;;;;;;;1.50;99.90;;;;;;4993818;28;20440;-80
2022/01/19 06:35:18;;;;;;;;;;;1.60;99.90;;;;;;4991851;28;19925;-80
2022/01/19 06:38:25;;;;;;;;;;;1.50;99.90;;;;;;4969305;28;19926;-79
2022/01/19 06:41:01;;;;;;;;;;;1.60;99.90;;;;;;4977059;28;20020;-80
2022/01/19 06:43:28;;;;;;;;;;;1.50;99.90;;;;;;4984619;28;20482;-80
2022/01/19 06:45:56;;;;;;;;;;;1.50;99.90;;;;;;5025056;28;19925;-80
2022/01/19 06:48:23;;;;;;;;;;;1.50;99.90;;;;;;5004991;28;19930;-80
2022/01/19 06:50:53;;;;;;;;;;;1.60;99.90;;;;;;4993236;28;19941;-80
2022/01/19 06:53:29;;;;;;;;;;;1.50;99.90;;;;;;4993882;28;19968;-80
2022/01/19 06:56:05;;;;;;;;;;;1.60;99.90;;;;;;4992600;28;20399;-79
2022/01/19 06:58:32;;;;;;;;;;;1.60;99.90;;;;;;4990387;28;19961;-79
2022/01/19 07:01:17;;;;;;;;;;;1.50;99.90;;;;;;4994723;28;19933;-80
2022/01/19 07:04:04;;;;;;;;;;;1.50;99.90;;;;;;5016898;28;19932;-79
2022/01/19 07:06:32;;;;;;;;;;;1.50;99.90;;;;;;4986226;28;20016;-81
2022/01/19 07:09:22;;;;;;;;;;;1.60;99.90;;;;;;5019044;28;19935;-80
2022/01/19 07:11:55;;;;;;;;;;;1.60;99.90;;;;;;5002921;28;20415;-80
2022/01/19 07:14:23;;;;;;;;;;;1.60;99.90;;;;;;4992618;28;20399;-79
2022/01/19 07:16:52;;;;;;;;;;;1.60;99.90;;;;;;5006097;28;19929;-79
2022/01/19 07:19:20;;;;;;;;;;;1.60;99.90;;;;;;4995007;28;19925;-78
2022/01/19 07:21:49;;;;;;;;;;;1.60;99.90;;;;;;5004907;28;19926;-79
2022/01/19 07:24:16;;;;;;;;;;;1.60;99.90;;;;;;4991765;28;19925;-79
2022/01/19 07:26:46;;;;;;;;;;;1.60;99.90;;;;;;4997788;28;19925;-80
2022/01/19 07:29:14;;;;;;;;;;;1.60;99.90;;;;;;5003253;28;20380;-79
2022/01/19 07:31:43;;;;;;;;;;;1.60;99.90;;;;;;4985844;28;19932;-79
2022/01/19 07:34:10;;;;;;;;;;;1.60;99.90;;;;;;4990033;28;19972;-79
2022/01/19 07:36:40;;;;;;;;;;;1.60;99.90;;;;;;4993499;28;20386;-79
2022/01/19 07:39:09;;;;;;;;;;;1.60;99.90;;;;;;4995408;28;19933;-80
2022/01/19 07:41:38;;;;;;;;;;;1.60;99.90;;;;;;4994705;28;19933;-79
2022/01/19 07:44:26;;;;;;;;;;;1.60;99.90;;;;;;4986254;28;19934;-80
2022/01/19 07:47:13;;;;;;;;;;;1.60;99.90;;;;;;5009670;28;20620;-79
2022/01/19 07:50:01;;;;;;;;;;;1.60;99.90;;;;;;5007598;28;20016;-79
2022/01/19 07:53:00;;;;;;;;;;;1.60;99.90;;;;;;4964803;28;20012;-79
2022/01/19 07:55:45;;;;;;;;;;;1.60;99.90;;;;;;4985694;28;19926;-79
2022/01/19 07:58:38;;;;;;;;;;;1.50;99.90;;;;;;4974631;28;20147;-79
2022/01/19 08:01:11;;;;;;;;;;;1.60;99.90;;;;;;4984841;28;20499;-79
2022/01/19 08:04:02;;;;;;;;;;;1.60;99.90;;;;;;5002210;28;19937;-79
2022/01/19 08:06:32;;;;;;;;;;;1.60;99.90;;;;;;4995237;28;19941;-80
2022/01/19 08:08:59;;;;;;;;;;;1.50;99.90;;;;;;5013006;28;20399;-79
2022/01/19 08:11:26;;;;;;;;;;;1.60;99.90;;;;;;4989605;28;20407;-79
2022/01/19 08:14:13;;;;;;;;;;;1.60;99.90;;;;;;5011696;28;19925;-79
2022/01/19 08:16:42;;;;;;;;;;;1.60;99.90;;;;;;5000494;28;19937;-79
2022/01/19 08:19:10;;;;;;;;;;;1.50;99.90;;;;;;5000420;28;20454;-80
2022/01/19 08:21:38;;;;;;;;;;;1.60;99.90;;;;;;4989561;28;19968;-79
2022/01/19 08:24:07;;;;;;;;;;;1.50;99.90;;;;;;5000107;28;19932;-79
2022/01/19 08:26:34;;;;;;;;;;;1.50;99.90;;;;;;4984274;28;19937;-79
2022/01/19 08:34:10;;;;;;;;;;;1.60;99.90;;;;;;4955885;28;20017;-79
2022/01/19 08:36:56;;;;;;;;;;;1.60;99.90;;;;;;4953586;28;20008;-79
2022/01/19 08:39:31;;;;;;;;;;;1.60;99.90;;;;;;4952035;28;19926;-79
2022/01/19 08:41:59;;;;;;;;;;;1.60;99.90;;;;;;4950005;28;19930;-79
2022/01/19 08:44:26;;;;;;;;;;;1.60;99.90;;;;;;4959774;28;20016;-79
2022/01/19 08:47:04;;;;;;;;;;;1.60;99.90;;;;;;4961149;28;20486;-78
2022/01/19 08:49:32;;;;;;;;;;;1.60;99.90;;;;;;4953095;28;20285;-79
2022/01/19 08:52:16;;;;;;;;;;;1.60;99.90;;;;;;4949999;28;20160;-78
2022/01/19 08:54:47;;;;;;;;;;;1.60;99.90;;;;;;4941833;28;19926;-78
2022/01/19 08:57:16;;;;;;;;;;;1.60;99.90;;;;;;4954066;28;19927;-78
2022/01/19 08:59:43;;;;;;;;;;;1.60;99.90;;;;;;4937785;28;19942;-79
2022/01/19 09:02:10;;;;;;;;;;;1.60;99.90;;;;;;4956033;28;20304;-79
2022/01/19 09:04:38;;;;;;;;;;;1.60;99.90;;;;;;4949889;28;20000;-79
2022/01/19 09:07:05;;;;;;;;;;;1.60;99.90;;;;;;4952230;28;20018;-79
2022/01/19 09:09:32;;;;;;;;;;;1.60;99.90;;;;;;4957143;28;19958;-79
2022/01/19 09:12:00;;;;;;;;;;;1.60;99.90;;;;;;4953477;28;19989;-79
2022/01/19 09:14:27;;;;;;;;;;;1.60;99.90;;;;;;4955085;28;19949;-79
2022/01/19 09:16:54;;;;;;;;;;;1.60;99.90;;;;;;4960288;28;20009;-79
2022/01/19 09:19:21;;;;;;;;;;;1.60;99.90;;;;;;4952896;28;20320;-79
2022/01/19 09:21:50;;;;;;;;;;;1.60;99.90;;;;;;4948490;28;19934;-79
2022/01/19 09:24:17;;;;;;;;;;;1.60;99.90;;;;;;4954338;28;19927;-79
2022/01/19 09:26:45;;;;;;;;;;;1.60;99.90;;;;;;4952563;28;19926;-79
2022/01/19 09:29:11;;;;;;;;;;;1.60;99.90;;;;;;4941340;29;19927;-79
2022/01/19 09:31:39;;;;;;;;;;;1.60;99.90;;;;;;4950379;28;19933;-79
2022/01/19 09:34:09;;;;;;;;;;;1.60;99.90;;;;;;4954751;28;19934;-79
2022/01/19 09:36:44;;;;;;;;;;;1.60;99.90;;;;;;4948802;28;20192;-79
2022/01/19 09:39:14;;;;;;;;;;;1.60;99.90;;;;;;4952612;28;19926;-78
2022/01/19 09:41:41;;;;;;;;;;;1.60;99.90;;;;;;4960478;28;20384;-79
2022/01/19 09:44:08;;;;;;;;;;;1.60;99.90;;;;;;4946080;28;19933;-79
2022/01/19 09:46:35;;;;;;;;;;;1.60;99.90;;;;;;4953499;28;19927;-79
2022/01/19 09:49:02;;;;;;;;;;;1.60;99.90;;;;;;4960823;28;19926;-78
2022/01/19 09:51:30;;;;;;;;;;;1.60;99.90;;;;;;4934375;29;19934;-79
2022/01/19 09:53:57;;;;;;;;;;;1.60;99.90;;;;;;4960505;28;19926;-79
2022/01/19 09:56:25;;;;;;;;;;;1.60;99.90;;;;;;4961970;28;20360;-79
2022/01/19 09:58:52;;;;;;;;;;;1.60;99.90;;;;;;4955690;28;20239;-79
2022/01/19 10:01:20;;;;;;;;;;;1.60;99.90;;;;;;4947597;28;19926;-79
2022/01/19 10:03:47;;;;;;;;;;;1.60;99.90;;;;;;4946706;28;19934;-79
2022/01/19 10:06:15;;;;;;;;;;;1.60;99.90;;;;;;4952736;28;19926;-79
2022/01/19 10:08:43;;;;;;;;;;;1.60;99.90;;;;;;4956058;28;19926;-79
2022/01/19 10:11:13;;;;;;;;;;;1.60;99.90;;;;;;4958522;28;19926;-79
2022/01/19 10:19:19;;;;;;;;;;;1.60;99.90;;;;;;4950930;28;19926;-79
2022/01/19 10:21:56;;;;;;;;;;;1.60;99.90;;;;;;4953150;28;20021;-79
2022/01/19 10:24:33;;;;;;;;;;;1.60;99.90;;;;;;4953880;28;20305;-79
2022/01/19 10:27:14;;;;;;;;;;;1.60;99.90;;;;;;4940359;28;20045;-79
2022/01/19 10:30:55;;;;;;;;;;;1.60;99.90;;;;;;5077703;27;19923;-78
2022/01/19 10:33:22;;;;;;;;;;;1.70;99.90;;;;;;5097255;28;20016;-78
2022/01/19 10:35:50;;;;;;;;;;;1.80;99.90;;;;;;5064886;28;19925;-78
2022/01/19 10:38:18;;;;;;;;;;;1.80;99.90;;;;;;5066280;28;19931;-78
2022/01/19 10:41:04;;;;;;;;;;;1.90;99.90;;;;;;5056715;28;19983;-78
2022/01/19 10:43:32;;;;;;;;;;;1.90;99.90;;;;;;5059722;28;19952;-78
2022/01/19 10:46:03;;;;;;;;;;;1.90;99.90;;;;;;5069935;28;20368;-78
2022/01/19 10:48:31;;;;;;;;;;;2.00;99.90;;;;;;5060397;28;19925;-78
2022/01/19 10:51:06;;;;;;;;;;;2.00;99.90;;;;;;5054381;28;19931;-78
2022/01/19 10:53:33;;;;;;;;;;;1.90;99.90;;;;;;5045470;28;19944;-78
2022/01/19 10:56:01;;;;;;;;;;;1.90;99.90;;;;;;5052852;28;20435;-78
2022/01/19 10:58:28;;;;;;;;;;;1.90;99.90;;;;;;5049671;28;19932;-78
2022/01/19 11:00:55;;;;;;;;;;;1.90;99.90;;;;;;5043962;28;20397;-78
2022/01/19 11:03:25;;;;;;;;;;;1.80;99.90;;;;;;5053436;28;20311;-77
2022/01/19 11:05:53;;;;;;;;;;;1.80;99.90;;;;;;5060715;28;19960;-78
2022/01/19 11:08:22;;;;;;;;;;;1.80;99.90;;;;;;5062158;28;19932;-78
2022/01/19 11:10:51;;;;;;;;;;;1.80;99.90;;;;;;5055740;28;19932;-78
2022/01/19 11:13:28;;;;;;;;;;;1.80;99.90;;;;;;5058681;28;19935;-78
2022/01/19 11:15:56;;;;;;;;;;;1.80;99.90;;;;;;5079936;28;19925;-78
2022/01/19 11:18:25;;;;;;;;;;;1.80;99.90;;;;;;5044944;28;19986;-78
2022/01/19 11:20:53;;;;;;;;;;;1.80;99.90;;;;;;5066644;28;19948;-78
2022/01/19 11:23:27;;;;;;;;;;;1.90;99.90;;;;;;5070643;28;20284;-78
2022/01/19 11:25:57;;;;;;;;;;;1.90;99.90;;;;;;5053643;28;19935;-78
2022/01/19 11:28:33;;;;;;;;;;;1.90;99.90;;;;;;5066735;28;19925;-78
2022/01/19 11:31:02;;;;;;;;;;;1.90;99.90;;;;;;5090242;28;19990;-78
2022/01/19 11:33:31;;;;;;;;;;;1.90;99.90;;;;;;5083858;28;19928;-77
2022/01/19 11:36:00;;;;;;;;;;;1.90;99.90;;;;;;5048319;28;19936;-76
2022/01/19 11:38:31;;;;;;;;;;;1.90;99.90;;;;;;5051262;28;19983;-77
2022/01/19 11:40:58;;;;;;;;;;;1.90;99.90;;;;;;5049975;28;19925;-77
2022/01/19 11:43:26;;;;;;;;;;;1.90;99.90;;;;;;5042135;28;19925;-78
2022/01/19 11:45:54;;;;;;;;;;;1.90;99.90;;;;;;5039942;28;19925;-78
2022/01/19 11:48:22;;;;;;;;;;;1.90;99.90;;;;;;5048777;28;20387;-78
2022/01/19 11:50:52;;;;;;;;;;;1.90;99.90;;;;;;5043375;28;20375;-78
2022/01/19 11:53:19;;;;;;;;;;;2.00;99.90;;;;;;5038813;28;19925;-78
2022/01/19 11:56:01;;;;;;;;;;;1.90;99.90;;;;;;5042638;28;19936;-77
2022/01/19 11:58:28;;;;;;;;;;;2.00;99.90;;;;;;5036158;28;19936;-76
2022/01/19 12:00:55;;;;;;;;;;;2.00;99.90;;;;;;5040253;28;19939;-77
2022/01/19 12:03:24;;;;;;;;;;;2.00;99.90;;;;;;5043599;28;19931;-77
2022/01/19 12:05:53;;;;;;;;;;;2.00;99.90;;;;;;5033242;28;19951;-77
2022/01/19 12:08:31;;;;;;;;;;;2.00;99.90;;;;;;5034297;28;19933;-78
2022/01/19 12:11:01;;;;;;;;;;;2.00;99.90;;;;;;5045761;28;20001;-78
2022/01/19 12:13:43;;;;;;;;;;;2.00;99.90;;;;;;5039613;28;19981;-78
2022/01/19 12:16:16;;;;;;;;;;;2.10;99.90;;;;;;5038770;28;20039;-79
2022/01/19 12:18:47;;;;;;;;;;;2.10;99.90;;;;;;5046227;28;19935;-77
2022/01/19 12:21:17;;;;;;;;;;;2.10;99.90;;;;;;5044211;28;19948;-79
2022/01/19 12:23:44;;;;;;;;;;;2.10;99.90;;;;;;5045931;28;19925;-78
2022/01/19 12:26:12;;;;;;;;;;;2.10;99.90;;;;;;5041881;28;19968;-78
2022/01/19 12:28:40;;;;;;;;;;;2.20;99.90;;;;;;5046709;28;19928;-78
2022/01/19 12:31:41;;;;;;;;;;;2.20;99.90;;;;;;5038437;28;19924;-77
2022/01/19 12:34:19;;;;;;;;;;;2.20;99.90;;;;;;4969578;28;19933;-77
2022/01/19 12:36:50;;;;;;;;;;;2.30;99.90;;;;;;4955781;28;20024;-77
2022/01/19 12:39:37;;;;;;;;;;;2.30;99.90;;;;;;5025142;28;19929;-78
2022/01/19 12:42:05;;;;;;;;;;;2.40;99.90;;;;;;5039983;28;20023;-77
2022/01/19 12:44:40;;;;;;;;;;;2.40;99.90;;;;;;5057200;28;19964;-78
2022/01/19 12:47:27;;;;;;;;;;;2.50;99.90;;;;;;5038271;28;19935;-79
2022/01/19 12:49:55;;;;;;;;;;;2.50;99.90;;;;;;5049302;28;19929;-78
2022/01/19 12:52:24;;;;;;;;;;;2.60;99.90;;;;;;5053858;28;19935;-78
2022/01/19 12:54:52;;;;;;;;;;;2.60;99.90;;;;;;5040922;28;20640;-78
2022/01/19 12:57:20;;;;;;;;;;;2.70;99.90;;;;;;5067456;28;19955;-77
2022/01/19 12:59:49;;;;;;;;;;;2.80;99.90;;;;;;5063053;28;19978;-77
2022/01/19 13:02:17;;;;;;;;;;;2.80;99.90;;;;;;5054046;28;21152;-79
2022/01/19 13:04:46;;;;;;;;;;;2.80;99.90;;;;;;5035969;28;19929;-78
2022/01/19 13:07:17;;;;;;;;;;;2.80;99.90;;;;;;5051126;28;20011;-78
2022/01/19 13:10:06;;;;;;;;;;;2.90;99.90;;;;;;5033263;28;20002;-78
2022/01/19 13:12:35;;;;;;;;;;;2.90;99.90;;;;;;5051010;28;19937;-77
2022/01/19 13:15:03;;;;;;;;;;;2.90;99.90;;;;;;5048809;28;19968;-78
2022/01/19 13:17:40;;;;;;;;;;;2.90;99.90;;;;;;5037596;28;19942;-80
2022/01/19 13:20:09;;;;;;;;;;;2.90;99.90;;;;;;5063769;28;20374;-79
2022/01/19 13:22:43;;;;;;;;;;;2.90;99.90;;;;;;5056591;28;20034;-77
2022/01/19 13:25:17;;;;;;;;;;;3.00;99.90;;;;;;5058756;28;19939;-78
2022/01/19 13:27:47;;;;;;;;;;;3.00;99.90;;;;;;5047811;28;20460;-77
2022/01/19 13:52:06;;;;;;;;;;;3.00;99.90;;;;;;5003815;28;20426;-77
2022/01/19 13:54:37;;;;;;;;;;;3.20;99.90;;;;;;4970089;28;19930;-77
2022/01/19 13:57:04;;;;;;;;;;;3.20;99.90;;;;;;4972062;28;20684;-77
2022/01/19 13:59:31;;;;;;;;;;;3.30;99.90;;;;;;4971478;28;19980;-78
2022/01/19 14:02:00;;;;;;;;;;;3.50;99.90;;;;;;4976107;28;19960;-78
2022/01/19 14:04:28;;;;;;;;;;;3.40;99.90;;;;;;4969438;28;20381;-77
2022/01/19 14:07:02;;;;;;;;;;;3.40;99.90;;;;;;4996745;23;19933;-79
2022/01/19 14:09:31;;;;;;;;;;;3.40;99.90;;;;;;5029735;28;20603;-80
2022/01/19 14:11:59;;;;;;;;;;;3.40;99.90;;;;;;4998890;28;19926;-79
2022/01/19 14:14:31;;;;;;;;;;;3.50;99.90;;;;;;5006103;28;19933;-79
2022/01/19 14:16:59;;;;;;;;;;;3.50;99.90;;;;;;4998122;28;19926;-79
2022/01/19 14:19:26;;;;;;;;;;;3.50;99.90;;;;;;5008351;28;19933;-79
2022/01/19 14:22:01;;;;;;;;;;;3.50;99.90;;;;;;5001638;28;19933;-78
2022/01/19 14:24:28;;;;;;;;;;;3.50;99.90;;;;;;4995700;28;19955;-79
2022/01/19 14:26:58;;;;;;;;;;;3.60;99.90;;;;;;4984656;28;20551;-79
2022/01/19 14:29:25;;;;;;;;;;;3.60;99.90;;;;;;4996936;28;19930;-79
2022/01/19 14:31:53;;;;;;;;;;;3.60;99.90;;;;;;5002125;28;19926;-78
2022/01/19 14:34:34;;;;;;;;;;;3.60;99.90;;;;;;4984750;28;19948;-79
2022/01/19 14:37:08;;;;;;;;;;;3.60;99.90;;;;;;4992948;28;19964;-79
2022/01/19 14:39:45;;;;;;;;;;;3.60;99.90;;;;;;4994873;28;19956;-79
2022/01/19 14:42:14;;;;;;;;;;;3.60;99.90;;;;;;4993197;28;19933;-79
2022/01/19 14:44:47;;;;;;;;;;;3.60;99.90;;;;;;4992031;28;20393;-79
2022/01/19 14:47:35;;;;;;;;;;;3.60;99.90;;;;;;4997915;28;19929;-79
2022/01/19 14:50:15;;;;;;;;;;;3.70;99.90;;;;;;4994719;28;19934;-79
2022/01/19 14:52:42;;;;;;;;;;;3.70;99.90;;;;;;4977202;28;19926;-79
2022/01/19 14:55:09;;;;;;;;;;;3.70;99.90;;;;;;4976868;28;19948;-79
2022/01/19 14:57:38;;;;;;;;;;;3.70;99.90;;;;;;4979319;28;19926;-79
2022/01/19 15:00:06;;;;;;;;;;;3.70;99.90;;;;;;4990146;28;19934;-80
2022/01/19 15:02:33;;;;;;;;;;;3.70;99.90;;;;;;4975992;28;19933;-79
2022/01/19 15:05:00;;;;;;;;;;;3.70;99.90;;;;;;4987018;28;19930;-79
2022/01/19 15:07:27;;;;;;;;;;;3.70;99.90;;;;;;4979693;28;19951;-79
2022/01/19 15:09:55;;;;;;;;;;;3.70;99.90;;;;;;4978142;28;20040;-79
2022/01/19 15:12:22;;;;;;;;;;;3.70;99.90;;;;;;4997650;28;19926;-79
2022/01/19 15:14:50;;;;;;;;;;;3.70;99.90;;;;;;4977546;28;19930;-80
2022/01/19 15:17:17;;;;;;;;;;;3.70;99.90;;;;;;4980876;28;19930;-80
2022/01/19 15:19:44;;;;;;;;;;;3.70;99.90;;;;;;4982582;28;20000;-78
2022/01/19 15:22:11;;;;;;;;;;;3.70;99.90;;;;;;4982048;28;19926;-79
2022/01/19 15:24:38;;;;;;;;;;;3.70;99.90;;;;;;4979686;28;20393;-79
2022/01/19 15:27:05;;;;;;;;;;;3.70;99.90;;;;;;4977480;28;19946;-79
2022/01/19 15:29:32;;;;;;;;;;;3.80;99.90;;;;;;4981847;28;20024;-79
2022/01/19 15:32:00;;;;;;;;;;;3.80;99.90;;;;;;4972527;28;19949;-79
2022/01/19 15:34:28;;;;;;;;;;;3.80;99.90;;;;;;4978135;28;20044;-78
2022/01/19 15:36:55;;;;;;;;;;;3.80;99.90;;;;;;4995481;28;19933;-78
2022/01/19 15:39:21;;;;;;;;;;;3.80;99.90;;;;;;4975435;28;19933;-78
2022/01/19 15:41:48;;;;;;;;;;;3.80;99.90;;;;;;4976540;28;19932;-79
2022/01/19 15:44:16;;;;;;;;;;;3.80;99.90;;;;;;4974810;28;19933;-78
2022/01/19 15:46:43;;;;;;;;;;;3.80;99.90;;;;;;4971892;28;19933;-78
2022/01/19 15:49:12;;;;;;;;;;;3.80;99.90;;;;;;4969601;28;19926;-78
2022/01/19 15:51:39;;;;;;;;;;;3.80;99.90;;;;;;4969927;28;20412;-79
2022/01/19 15:54:06;;;;;;;;;;;3.80;99.90;;;;;;4973897;28;20378;-78
2022/01/19 15:56:33;;;;;;;;;;;3.70;99.90;;;;;;4983955;28;19933;-78
2022/01/19 15:59:00;;;;;;;;;;;3.80;99.90;;;;;;4975161;28;19953;-78
2022/01/19 16:01:27;;;;;;;;;;;3.80;99.90;;;;;;4980053;28;19926;-79
2022/01/19 16:03:54;;;;;;;;;;;3.70;99.90;;;;;;4977949;28;20020;-78
2022/01/19 16:06:23;;;;;;;;;;;3.70;99.90;;;;;;4973864;28;19947;-78
2022/01/19 16:08:50;;;;;;;;;;;3.70;99.90;;;;;;4980259;28;19937;-78
2022/01/19 16:11:18;;;;;;;;;;;3.70;99.90;;;;;;4967091;28;20013;-79
2022/01/19 16:13:46;;;;;;;;;;;3.70;99.90;;;;;;4975914;28;21280;-78
2022/01/19 16:16:13;;;;;;;;;;;3.70;99.90;;;;;;4970119;28;19980;-79
2022/01/19 16:18:40;;;;;;;;;;;3.70;99.90;;;;;;4963136;28;19934;-79
2022/01/19 16:21:09;;;;;;;;;;;3.70;99.90;;;;;;4978906;28;19949;-79
2022/01/19 16:26:22;;;;;;;;;;;3.70;99.90;;;;;;4995813;28;20042;-79
2022/01/19 16:28:50;;;;;;;;;;;3.70;99.90;;;;;;4983157;28;19933;-78
2022/01/19 16:31:18;;;;;;;;;;;3.60;99.90;;;;;;4982264;28;19930;-78
2022/01/19 16:33:46;;;;;;;;;;;3.60;99.90;;;;;;4986131;28;20012;-79